WetterOnline ( https://www.wetteronline.ch )

Wetter aktuell Kassel

Aktuelles Wetter: Schauenburg-Elgershausen (317m)

6-stündlich | Neueste Meldungen
Ortszeit Temperatur Wetter
So, 25.02. 7:00 4.6° C bedeckt
So, 25.02. 1:00 2.8° C bedeckt
Sa, 24.02. 19:00 4.6° C bewölkt
Sa, 24.02. 13:00 4.9° C bewölkt
Sa, 24.02. 7:00 2.5° C bedeckt
Sa, 24.02. 1:00 0.9° C leicht bewölkt
Fr, 23.02. 19:00 5.2° C leicht bewölkt
Fr, 23.02. 13:00 5.8° C bewölkt
Ortszeit Temperatur Wetter
So, 25.02. 7:00 4.6° C bedeckt
So, 25.02. 6:50 4.6° C leichter Regen
So, 25.02. 6:40 4.5° C bedeckt
So, 25.02. 6:30 3.2° C bewölkt
So, 25.02. 6:20 3.2° C bewölkt
So, 25.02. 6:10 2.9° C bewölkt
So, 25.02. 6:00 3.3° C bewölkt
So, 25.02. 5:30 3.5° C bedeckt
So, 25.02. 5:00 1.9° C bewölkt
So, 25.02. 4:30 1.1° C wolkig
So, 25.02. 4:00 1.4° C wolkig
Ortszeit Relative Feuchte Sichtweite
So, 25.02. 7:00 66% 60 km
So, 25.02. 1:00 81% >70 km
Sa, 24.02. 19:00 71% >70 km
Sa, 24.02. 13:00 81% 50 km
Sa, 24.02. 7:00 84% 50 km
Sa, 24.02. 1:00 88% 50 km
Fr, 23.02. 19:00 68% 55 km
Fr, 23.02. 13:00 64% 50 km
Ortszeit Relative Feuchte Sichtweite
So, 25.02. 7:00 66% 60 km
So, 25.02. 6:50 66% -
So, 25.02. 6:40 67% -
So, 25.02. 6:30 74% >70 km
So, 25.02. 6:20 74% -
So, 25.02. 6:10 77% -
So, 25.02. 6:00 74% >70 km
So, 25.02. 5:30 73% 65 km
So, 25.02. 5:00 83% 60 km
So, 25.02. 4:30 86% >70 km
So, 25.02. 4:00 86% 65 km
Ortszeit Niederschlagsmenge Niederschlagsart
So, 25.02. 7:00 0.1 l/m2 in 12 Std. Regen
So, 25.02. 1:00 0.1 l/m2 in 6 Std. Regen
Sa, 24.02. 19:00 0.3 l/m2 in 12 Std. Regen
Sa, 24.02. 13:00 0.3 l/m2 in 6 Std. Regen
Sa, 24.02. 7:00 0.0 l/m2 in 12 Std. -
Sa, 24.02. 1:00 0.0 l/m2 in 6 Std. -
Fr, 23.02. 19:00 0.1 l/m2 in 12 Std. Regen
Fr, 23.02. 13:00 0.0 l/m2 in 6 Std. -
Ortszeit Niederschlagsmenge Niederschlagsart
So, 25.02. 7:00 <0.05 l/m2 in 1 Std. Regen
So, 25.02. 6:50 keine Meldung -
So, 25.02. 6:40 keine Meldung -
So, 25.02. 6:30 0.0 l/m2 in 30 Min -
So, 25.02. 6:20 keine Meldung -
So, 25.02. 6:10 keine Meldung -
So, 25.02. 6:00 0.0 l/m2 in 1 Std. -
So, 25.02. 5:30 0.0 l/m2 in 30 Min -
So, 25.02. 5:00 0.0 l/m2 in 1 Std. -
So, 25.02. 4:30 0.0 l/m2 in 30 Min -
So, 25.02. 4:00 0.0 l/m2 in 1 Std. -
Ortszeit Stärke Spitze Richtung
km/h Bft. km/h Grad Sektor
So, 25.02. 7:00 18 3 36 180° S
So, 25.02. 1:00 9 2 33 230° SW
Sa, 24.02. 19:00 17 3 37 180° S
Sa, 24.02. 13:00 22 4 40 190° S
Sa, 24.02. 7:00 4 1 11 70° O
Sa, 24.02. 1:00 4 1 25 70° O
Fr, 23.02. 19:00 7 2 47 150° SO
Fr, 23.02. 13:00 20 4 39 200° S
Ortszeit Stärke Spitze Richtung
km/h Bft. km/h Grad Sektor
So, 25.02. 7:00 18 3 36 180° S
So, 25.02. 6:50 18 3 - 180° S
So, 25.02. 6:40 18 3 - 170° S
So, 25.02. 6:30 6 1 11 140° SO
So, 25.02. 6:20 6 1 - 140° SO
So, 25.02. 6:10 4 1 - 130° SO
So, 25.02. 6:00 7 2 18 140° SO
So, 25.02. 5:30 7 2 14 160° S
So, 25.02. 5:00 4 1 11 110° O
So, 25.02. 4:30 4 1 7 110° O
So, 25.02. 4:00 4 1 7 110° O
Ortszeit Untergrenze Bedeckung Gattung
total tief tief mittel hoch
So, 25.02. 7:00 1230 m 8/8 8/8 - - -
So, 25.02. 1:00 6000 m 8/8 8/8 - - -
Sa, 24.02. 19:00 1290 m 7/8 7/8 - - -
Sa, 24.02. 13:00 450 m 7/8 7/8 - - -
Sa, 24.02. 7:00 510 m 8/8 8/8 - - -
Sa, 24.02. 1:00 7500 m 4/8 0/8 - - -
Fr, 23.02. 19:00 1350 m 4/8 4/8 - - -
Fr, 23.02. 13:00 930 m 7/8 7/8 - - -
Ortszeit Bedeckungsgrad in Achtel und Wolkenuntergrenze
So, 25.02. 7:00 5(1230m) 8(1470m) 8(2400m)
So, 25.02. 6:50 5(1230m) 8(1470m) 8(2400m)
So, 25.02. 6:40 8
So, 25.02. 6:30 3(1260m) 7(1500m) 8(5400m)
So, 25.02. 6:20 3(1260m) 7(1500m) 8(5400m)
So, 25.02. 6:10 7
So, 25.02. 6:00 5(1500m) 7(4200m) 8(4800m)
So, 25.02. 5:30 7(1350m) 8(1500m)
So, 25.02. 5:00 6(1500m) 8(6000m) 8(6900m)
So, 25.02. 4:30 1(1500m) 8(6000m) 8(8100m)
So, 25.02. 4:00 1(1350m) 8(3900m) 8(6600m)
Ortszeit Luftdruck NN (hPa) Tendenz (hPa in 3 Std.)
So, 25.02. 7:00 1004 - 0,7
So, 25.02. 1:00 1007 + 0,3
Sa, 24.02. 19:00 1005 + 1,9
Sa, 24.02. 13:00 1002 + 1,0
Sa, 24.02. 7:00 1000 + 1,3
Sa, 24.02. 1:00 998 - 0,2
Fr, 23.02. 19:00 997 + 0,5
Fr, 23.02. 13:00 996 - 0,2
Ortszeit Luftdruck NN (hPa) Tendenz (hPa in 3 Std.)
So, 25.02. 7:00 1004 - 0,7
So, 25.02. 6:50 1004 keine Meldung
So, 25.02. 6:40 1004 keine Meldung
So, 25.02. 6:30 1004 - 1,0
So, 25.02. 6:20 1004 keine Meldung
So, 25.02. 6:10 1004 keine Meldung
So, 25.02. 6:00 1004 - 1,4
So, 25.02. 5:30 1005 - 1,6
So, 25.02. 5:00 1005 - 1,6
So, 25.02. 4:30 1005 - 1,5
So, 25.02. 4:00 1005 - 1,4
Ortszeit Schneehöhe (cm)
So, 25.02. 7:00 0
So, 25.02. 1:00 0
Sa, 24.02. 19:00 0
Sa, 24.02. 13:00 0
Sa, 24.02. 7:00 0
Sa, 24.02. 1:00 0
Fr, 23.02. 19:00 0
Fr, 23.02. 13:00 0
Ortszeit Schneehöhe (cm)
So, 25.02. 7:00 0
So, 25.02. 6:50 0
So, 25.02. 6:40 -
So, 25.02. 6:30 0
So, 25.02. 6:20 0
So, 25.02. 6:10 -
So, 25.02. 6:00 0
So, 25.02. 5:30 0
So, 25.02. 5:00 0
So, 25.02. 4:30 0
So, 25.02. 4:00 0
Link zu dieser Seite / Seite empfehlen

Das Wetter in ...